Flight Track Log - Related Links

Times and Time Zones

All times are in EDT time to prevent confusion due to time zone crossing. See the RPA3392 flight status page for this flight to view local times or setup timezone preferences in your user account.

Time Position Orientation Groundspeed Altitude Reporting Facility
EDT Latitude Longitude Course Direction KTS MPH feet Rate Location/Type
Sun 10:30:05 PM 38.8167 -77.0333 81° East 153 176 1,200  Level Potomac TRACON
Sun 10:31:59 PM 38.7514 -76.9544 137° Southeast 187 215 4,900 2,103 Climbing Washington Center
Sun 10:32:00 PM 39.0328 -76.5181 67° East  Level FlightAware Approximate
Sun 10:32:59 PM 38.7419 -76.8586 97° East 223 257 7,300  Level Washington Center
Sun 10:33:00 PM 39.1034 -76.3476 61° Northeast  Level FlightAware Approximate
Sun 10:34:00 PM 39.1541 -76.1758 83° East  Level FlightAware Approximate
Sun 10:34:00 PM 38.8094 -76.7983 35° Northeast 218 251 9,600  Level Washington Center
Sun 10:35:00 PM 39.1729 -75.9839 81° East  Level FlightAware Approximate
Sun 10:35:01 PM 38.8892 -76.7436 28° Northeast 263 303 11,400  Level Washington Center
Sun 10:35:58 PM 38.9750 -76.6836 29° Northeast 302 348 13,600 2,000 Climbing Washington Center
Sun 10:36:58 PM 39.0219 -76.5775 60° Northeast 325 374 15,300 1,750 Climbing Washington Center
Sun 10:37:58 PM 39.0728 -76.4633 60° Northeast 338 389 17,100 1,686 Climbing Washington Center
Sun 10:38:59 PM 39.1361 -76.3569 52° Northeast 355 409 18,700 1,525 Climbing Washington Center
Sun 10:40:00 PM 39.2014 -76.2478 52° Northeast 371 427 20,200 1,150 Climbing Washington Center
Sun 10:40:59 PM 39.2664 -76.1464 50° Northeast 384 442 21,000 966 Climbing Washington Center
Sun 10:41:58 PM 39.3356 -76.0264 53° Northeast 403 464 22,100 1,109 Climbing Washington Center
Sun 10:42:58 PM 39.4069 -75.9031 53° Northeast 415 478 23,200 1,000 Climbing Washington Center
Sun 10:43:58 PM 39.4758 -75.7769 55° Northeast 420 483 24,100 992 Climbing Washington Center
Sun 10:44:59 PM 39.5511 -75.6508 52° Northeast 427 491 25,200 1,509 Climbing Washington Center
Sun 10:46:41 PM 39.6797 -75.4292 53° Northeast 430 495 28,200 1,425 Climbing New York Center
Sun 10:47:39 PM 39.7511 -75.3044 53° Northeast 430 495 29,000 400 Climbing New York Center
Sun 10:48:41 PM 39.8292 -75.1742 52° Northeast 441 507 29,000  Level New York Center
Sun 10:49:41 PM 39.9053 -75.0275 56° Northeast 465 535 29,000  Level New York Center
Sun 10:50:39 PM 39.9786 -74.9019 53° Northeast 484 557 29,000  Level New York Center
Sun 10:51:39 PM 40.0522 -74.7653 55° Northeast 478 550 29,000  Level New York Center
Sun 10:52:41 PM 40.1425 -74.6158 52° Northeast 478 550 29,000  Level New York Center
Sun 10:53:39 PM 40.2511 -74.5456 26° Northeast 464 534 29,000  Level New York Center
Sun 10:54:39 PM 40.3794 -74.5064 13° North 457 526 29,000  Level New York Center
Sun 10:55:39 PM 40.5056 -74.4722 12° North 457 526 29,000  Level New York Center
Sun 10:56:40 PM 40.6339 -74.4353 12° North 457 526 29,000 -49 Level New York Center
Sun 10:57:41 PM 40.7600 -74.3983 13° North 457 526 28,900 -725 Descending New York Center
Sun 11:00:07 PM 41.0781 -74.3125 11° North 449 517 26,500 -845 Descending Boston Center
Sun 11:01:07 PM 41.1933 -74.2772 13° North 434 499 26,000 -250 Descending Boston Center
Sun 11:02:07 PM 41.2981 -74.2417 14° North 427 491 26,000  Level Boston Center
Sun 11:03:07 PM 41.4217 -74.2064 12° North 427 491 26,000  Level Boston Center
Sun 11:04:07 PM 41.5597 -74.1656 12° North 444 511 26,000  Level Boston Center
Sun 11:05:07 PM 41.6814 -74.1272 13° North 454 522 26,000  Level Boston Center
Sun 11:06:07 PM 41.7775 -74.0992 12° North 448 516 26,000  Level Boston Center
Sun 11:07:07 PM 41.9178 -74.0583 12° North 435 501 26,000  Level Boston Center
Sun 11:08:07 PM 42.0392 -74.0222 12° North 435 501 26,000  Level Boston Center
Sun 11:09:07 PM 42.1647 -73.9864 12° North 440 506 26,000  Level Boston Center
Sun 11:10:07 PM 42.2861 -73.9500 13° North 445 512 26,000 -600 Level Boston Center
Sun 11:11:07 PM 42.3950 -73.9161 13° North 437 503 24,800 -1,800 Descending Boston Center
Sun 11:12:07 PM 42.5017 -73.8819 13° North 411 473 22,400 -2,200 Descending Boston Center
Sun 11:13:07 PM 42.5872 -73.8811 360° North 391 450 20,400 -2,500 Descending Boston Center
Sun 11:14:07 PM 42.7058 -73.8839 359° North 368 423 17,400 -2,850 Descending Boston Center
Sun 11:15:07 PM 42.7956 -73.8861 359° North 343 395 14,700 -2,700 Descending Boston Center
Sun 11:16:07 PM 42.8811 -73.8850 North 319 367 12,000 -2,500 Descending Boston Center
Sun 11:17:07 PM 42.9539 -73.8897 357° North 292 336 9,700 -2,550 Descending Boston Center
Sun 11:18:07 PM 43.0192 -73.8372 30° Northeast 246 283 6,900 -2,700 Descending Boston Center
Sun 11:19:07 PM 43.0078 -73.7433 99° East 226 260 4,300 -1,750 Descending Boston Center
Sun 11:20:07 PM 42.9492 -73.7564 189° South 153 176 3,400 -909 Descending Boston Center
Sun 11:21:19 PM 42.8822 -73.7944 203° Southwest 160 184 2,300 -591 Descending Boston Center
Sun 11:22:19 PM 42.8342 -73.8047 189° South 171 197 2,100 10,850 Descending Boston Center
Sun 11:23:19 PM 42.7881 -73.8178 192° South 171 197 24,000 10,950 Climbing Boston Center
Sun 11:24:19 PM 42.7400 -73.8308 191° South 171 197 24,000  Level Boston Center
Sun 11:25:19 PM 42.6939 -73.8439 192° South 171 197 24,000  Level Boston Center
Sun 11:26:19 PM 42.6750 -73.8492 192° South 171 197 24,000  Level Boston Center

Login

Don't have an account? Register now (free) for customized features, flight alerts, and more!